Time;durP1;ratioP1;P1;durP2;ratioP2;P2;SDS_P1;SDS_P2;PMS_P1;PMS_P2;Temp;Humidity;BMP_temperature;BMP_pressure;BME280_temperature;BME280_humidity;BME280_pressure;Samples;Min_cycle;Max_cycle;Signal;HPM_P1;HPM_P2
2024/02/22 00:01:23;;;;;;;60.42;29.25;;;;;;;;;;5039181;28;20048;-96
2024/02/22 00:04:07;;;;;;;57.13;28.45;;;;;;;;;;5040942;28;20394;-96
2024/02/22 00:06:33;;;;;;;59.17;28.27;;;;;;;;;;5043412;28;20037;-95
2024/02/22 00:08:59;;;;;;;53.60;27.00;;;;;;;;;;5039652;28;20103;-96
2024/02/22 00:11:26;;;;;;;55.80;26.92;;;;;;;;;;5039003;28;20033;-95
2024/02/22 00:13:54;;;;;;;51.25;27.40;;;;;;;;;;5022633;28;20037;-95
2024/02/22 00:19:24;;;;;;;50.88;26.67;;;;;;;;;;5019159;28;20048;-95
2024/02/22 00:21:50;;;;;;;55.80;27.50;;;;;;;;;;5016324;28;20029;-96
2024/02/22 00:24:16;;;;;;;51.45;26.42;;;;;;;;;;5016012;28;20025;-96
2024/02/22 00:26:42;;;;;;;55.83;27.17;;;;;;;;;;5015956;28;20102;-96
2024/02/22 00:29:08;;;;;;;52.38;26.45;;;;;;;;;;5015840;28;20029;-94
2024/02/22 00:31:37;;;;;;;55.30;26.38;;;;;;;;;;5015614;28;20030;-96
2024/02/22 00:34:03;;;;;;;53.08;27.45;;;;;;;;;;5014798;28;20026;-94
2024/02/22 00:36:29;;;;;;;60.28;28.13;;;;;;;;;;5015618;28;20054;-96
2024/02/22 00:38:55;;;;;;;46.35;25.60;;;;;;;;;;5017211;28;20034;-96
2024/02/22 00:41:21;;;;;;;49.53;25.02;;;;;;;;;;5016187;28;20026;-96
2024/02/22 00:43:53;;;;;;;48.15;25.63;;;;;;;;;;5016362;28;20025;-96
2024/02/22 00:46:22;;;;;;;45.47;25.08;;;;;;;;;;5015702;28;20152;-96
2024/02/22 00:48:49;;;;;;;54.80;27.13;;;;;;;;;;5083162;22;20060;-96
2024/02/22 00:51:33;;;;;;;41.53;22.15;;;;;;;;;;5017193;28;20030;-96
2024/02/22 00:54:09;;;;;;;41.03;22.15;;;;;;;;;;4996628;28;20431;-96
2024/02/22 00:56:36;;;;;;;40.85;20.13;;;;;;;;;;4979682;28;20026;-96
2024/02/22 00:59:02;;;;;;;39.83;20.88;;;;;;;;;;4979968;28;20488;-95
2024/02/22 01:01:44;;;;;;;38.72;20.85;;;;;;;;;;4995675;28;20041;-95
2024/02/22 01:04:11;;;;;;;43.15;21.50;;;;;;;;;;4995424;28;20031;-96
2024/02/22 01:06:40;;;;;;;36.30;19.83;;;;;;;;;;4995564;28;20119;-96
2024/02/22 01:09:08;;;;;;;36.63;19.92;;;;;;;;;;4978786;28;20054;-94
2024/02/22 01:11:34;;;;;;;40.72;21.65;;;;;;;;;;4995409;28;20116;-95
2024/02/22 01:14:00;;;;;;;38.65;20.45;;;;;;;;;;4995400;28;20026;-95
2024/02/22 01:16:26;;;;;;;50.40;25.52;;;;;;;;;;5005684;28;20045;-95
2024/02/22 01:18:52;;;;;;;46.60;22.55;;;;;;;;;;5014740;28;20026;-95
2024/02/22 01:21:22;;;;;;;39.03;19.35;;;;;;;;;;5014940;28;20025;-95
2024/02/22 01:23:48;;;;;;;38.20;19.35;;;;;;;;;;5014861;28;20025;-95
2024/02/22 01:26:15;;;;;;;36.85;18.80;;;;;;;;;;5014939;28;20471;-95
2024/02/22 01:28:41;;;;;;;38.42;19.10;;;;;;;;;;5014610;28;20030;-95
2024/02/22 06:32:43;;;;;;;20.40;9.50;;;;;;;;;;5938511;23;21221;-93
2024/02/22 06:35:10;;;;;;;25.17;10.30;;;;;;;;;;4976623;28;20065;-95
2024/02/22 06:37:36;;;;;;;27.65;10.70;;;;;;;;;;4961153;28;20031;-95
2024/02/22 06:40:07;;;;;;;28.70;10.57;;;;;;;;;;4956192;28;20117;-96
2024/02/22 06:42:34;;;;;;;18.63;8.73;;;;;;;;;;4977605;28;20015;-94
2024/02/22 06:45:04;;;;;;;14.27;8.77;;;;;;;;;;4985828;28;20043;-96
2024/02/22 06:47:30;;;;;;;14.35;7.55;;;;;;;;;;4967234;28;20042;-95
2024/02/22 06:49:56;;;;;;;16.45;8.05;;;;;;;;;;4961511;28;20022;-94
2024/02/22 06:52:27;;;;;;;13.80;8.00;;;;;;;;;;4961465;28;20534;-95
2024/02/22 06:54:54;;;;;;;17.70;7.88;;;;;;;;;;4973823;28;20026;-94
2024/02/22 06:57:22;;;;;;;13.85;7.15;;;;;;;;;;4990670;28;20075;-91
2024/02/22 06:59:51;;;;;;;18.77;8.50;;;;;;;;;;4973681;28;20023;-95
2024/02/22 07:02:22;;;;;;;17.65;7.82;;;;;;;;;;4980384;28;20053;-91
2024/02/22 07:04:55;;;;;;;24.38;10.90;;;;;;;;;;4963870;28;20023;-92
2024/02/22 07:07:24;;;;;;;20.67;9.57;;;;;;;;;;4963078;28;20406;-93
2024/02/22 07:09:56;;;;;;;20.90;10.18;;;;;;;;;;4965143;28;20027;-90
2024/02/22 07:12:23;;;;;;;19.88;9.07;;;;;;;;;;4965760;28;20501;-91
2024/02/22 07:14:56;;;;;;;15.45;7.45;;;;;;;;;;4961654;28;20483;-94
2024/02/22 07:17:22;;;;;;;17.90;6.75;;;;;;;;;;4963560;28;20069;-94
2024/02/22 07:19:51;;;;;;;13.43;8.30;;;;;;;;;;5023842;23;20058;-91
2024/02/22 07:25:00;;;;;;;12.30;7.20;;;;;;;;;;4994561;23;20193;-90
2024/02/22 07:27:26;;;;;;;17.90;8.25;;;;;;;;;;4963963;28;20049;-90
2024/02/22 07:29:57;;;;;;;12.18;7.68;;;;;;;;;;4980816;28;20026;-87
2024/02/22 07:32:38;;;;;;;20.05;8.82;;;;;;;;;;5607302;23;20055;-91
2024/02/22 07:35:08;;;;;;;19.13;7.72;;;;;;;;;;4958185;29;20035;-95
2024/02/22 07:37:35;;;;;;;14.57;8.05;;;;;;;;;;4958741;29;20043;-92
2024/02/22 07:43:56;;;;;;;11.43;6.65;;;;;;;;;;4931413;29;20018;-96
2024/02/22 07:46:24;;;;;;;11.95;7.53;;;;;;;;;;4943730;29;20040;-91
2024/02/22 07:48:50;;;;;;;11.82;8.52;;;;;;;;;;4926368;29;20055;-91
2024/02/22 07:51:22;;;;;;;19.95;12.43;;;;;;;;;;4937230;29;20028;-94
2024/02/22 07:53:50;;;;;;;17.73;10.80;;;;;;;;;;4953584;29;20027;-91
2024/02/22 07:56:17;;;;;;;13.98;9.18;;;;;;;;;;4934547;29;20028;-95
2024/02/22 08:01:41;;;;;;;15.90;9.40;;;;;;;;;;5075989;23;20054;-93
2024/02/22 08:04:35;;;;;;;14.85;10.38;;;;;;;;;;4989027;28;20083;-92
2024/02/22 08:07:24;;;;;;;13.55;7.85;;;;;;;;;;4984797;28;20487;-94
2024/02/22 08:10:02;;;;;;;15.77;10.60;;;;;;;;;;4963529;28;20061;-94
2024/02/22 08:12:37;;;;;;;12.55;8.07;;;;;;;;;;4982623;28;20387;-94
2024/02/22 08:15:08;;;;;;;11.65;8.65;;;;;;;;;;4966160;28;20139;-92
2024/02/22 08:17:41;;;;;;;13.20;7.97;;;;;;;;;;4972844;28;20074;-94
2024/02/22 08:20:14;;;;;;;13.18;7.80;;;;;;;;;;5002575;28;20038;-94
2024/02/22 08:25:50;;;;;;;10.75;7.05;;;;;;;;;;4999360;28;20522;-92
2024/02/22 08:28:35;;;;;;;14.15;8.25;;;;;;;;;;4983899;28;20043;-94
2024/02/22 08:31:01;;;;;;;12.02;8.23;;;;;;;;;;5392737;23;20246;-93
2024/02/22 08:36:52;;;;;;;12.57;7.55;;;;;;;;;;5261686;23;20138;-95
2024/02/22 08:39:23;;;;;;;12.13;9.32;;;;;;;;;;4975150;28;20050;-95
2024/02/22 08:41:49;;;;;;;12.32;9.05;;;;;;;;;;4975007;28;20486;-96
2024/02/22 08:44:37;;;;;;;11.00;8.07;;;;;;;;;;4970657;28;20050;-95
2024/02/22 08:47:03;;;;;;;9.85;6.20;;;;;;;;;;4974185;28;20038;-95
2024/02/22 08:49:38;;;;;;;9.48;5.72;;;;;;;;;;4985688;28;20030;-92
2024/02/22 08:54:48;;;;;;;11.20;6.15;;;;;;;;;;4985848;23;20140;-96
2024/02/22 08:57:18;;;;;;;11.43;5.85;;;;;;;;;;4952676;28;20043;-95
2024/02/22 09:02:39;;;;;;;12.30;7.30;;;;;;;;;;5373184;23;20050;-89
2024/02/22 09:05:11;;;;;;;16.42;6.93;;;;;;;;;;5240003;23;20050;-89
2024/02/22 09:07:37;;;;;;;10.90;6.50;;;;;;;;;;4971301;28;20035;-91
2024/02/22 09:10:10;;;;;;;12.75;6.68;;;;;;;;;;4950497;28;20027;-96
2024/02/22 09:12:52;;;;;;;13.10;6.43;;;;;;;;;;4969224;28;20046;-93
2024/02/22 09:18:48;;;;;;;11.15;5.72;;;;;;;;;;4991185;28;20061;-95
2024/02/22 09:21:17;;;;;;;11.50;5.82;;;;;;;;;;5172926;23;20022;-93
2024/02/22 09:43:05;;;;;;;11.87;7.23;;;;;;;;;;4939217;29;20066;-91
2024/02/22 09:45:38;;;;;;;13.93;7.80;;;;;;;;;;4925206;29;20294;-89
2024/02/22 09:48:05;;;;;;;13.98;7.93;;;;;;;;;;4927391;29;20126;-91
2024/02/22 09:50:31;;;;;;;10.55;7.20;;;;;;;;;;4940857;29;20122;-91
2024/02/22 09:53:00;;;;;;;11.80;7.00;;;;;;;;;;4940330;29;20030;-90
2024/02/22 09:55:26;;;;;;;14.70;8.98;;;;;;;;;;4939949;29;20034;-90
2024/02/22 09:57:52;;;;;;;12.15;8.25;;;;;;;;;;4940107;29;20059;-88
2024/02/22 10:00:18;;;;;;;11.82;7.53;;;;;;;;;;4940111;29;20027;-89
2024/02/22 10:02:46;;;;;;;12.38;7.63;;;;;;;;;;4939972;29;20034;-90
2024/02/22 10:05:12;;;;;;;12.23;7.50;;;;;;;;;;4939455;29;20031;-91
2024/02/22 10:07:39;;;;;;;12.02;8.20;;;;;;;;;;4939818;29;20039;-89
2024/02/22 10:10:12;;;;;;;13.35;8.68;;;;;;;;;;4940046;29;20030;-91
2024/02/22 10:12:43;;;;;;;14.70;8.40;;;;;;;;;;4939747;29;20035;-91
2024/02/22 10:15:18;;;;;;;12.82;9.00;;;;;;;;;;4940123;29;20054;-91
2024/02/22 10:17:44;;;;;;;14.30;9.38;;;;;;;;;;4940499;29;20066;-91
2024/02/22 10:20:10;;;;;;;13.15;9.95;;;;;;;;;;4939507;29;20475;-91
2024/02/22 10:22:42;;;;;;;11.80;8.35;;;;;;;;;;4926574;29;20036;-91
2024/02/22 10:25:14;;;;;;;14.60;8.88;;;;;;;;;;4921045;29;20110;-91
2024/02/22 10:27:45;;;;;;;13.98;8.45;;;;;;;;;;4920693;29;20451;-92
2024/02/22 10:30:12;;;;;;;14.38;8.85;;;;;;;;;;4920959;29;20055;-91
2024/02/22 10:32:40;;;;;;;14.70;8.63;;;;;;;;;;4920507;29;20129;-91
2024/02/22 10:35:07;;;;;;;14.23;8.68;;;;;;;;;;4920124;29;20087;-92
2024/02/22 10:37:34;;;;;;;16.75;9.15;;;;;;;;;;4920247;29;20433;-91
2024/02/22 10:40:03;;;;;;;12.13;8.48;;;;;;;;;;4920691;29;20106;-89
2024/02/22 10:42:29;;;;;;;12.32;9.10;;;;;;;;;;4930423;29;20114;-89
2024/02/22 10:44:55;;;;;;;12.73;8.00;;;;;;;;;;4941174;29;20103;-90
2024/02/22 10:47:22;;;;;;;11.77;7.95;;;;;;;;;;4920400;29;20107;-90
2024/02/22 10:49:49;;;;;;;14.73;9.07;;;;;;;;;;4920210;29;20119;-92
2024/02/22 10:52:18;;;;;;;12.93;8.77;;;;;;;;;;4920214;29;20037;-89
2024/02/22 10:54:47;;;;;;;11.88;8.55;;;;;;;;;;4920232;29;20442;-90
2024/02/22 10:57:14;;;;;;;10.63;7.93;;;;;;;;;;4920280;29;20027;-90
2024/02/22 10:59:44;;;;;;;11.63;8.13;;;;;;;;;;4920204;29;20036;-92
2024/02/22 11:02:12;;;;;;;12.07;7.35;;;;;;;;;;4933043;29;20038;-91
2024/02/22 11:04:44;;;;;;;13.27;8.73;;;;;;;;;;4922865;29;20044;-92
2024/02/22 11:07:16;;;;;;;13.40;7.45;;;;;;;;;;4920236;29;20496;-92
2024/02/22 11:09:51;;;;;;;13.88;10.70;;;;;;;;;;4920052;29;20054;-91
2024/02/22 11:12:22;;;;;;;12.50;8.48;;;;;;;;;;4919867;29;20046;-91
2024/02/22 11:14:49;;;;;;;15.35;9.15;;;;;;;;;;4928109;29;20068;-91
2024/02/22 11:17:18;;;;;;;16.60;12.50;;;;;;;;;;4920463;29;20020;-89
2024/02/22 11:19:45;;;;;;;16.38;12.13;;;;;;;;;;4923506;29;20035;-90
2024/02/22 11:22:15;;;;;;;15.48;11.75;;;;;;;;;;4926688;29;20035;-93
2024/02/22 11:24:42;;;;;;;17.23;10.75;;;;;;;;;;4929786;29;20039;-94
2024/02/22 11:27:08;;;;;;;15.85;12.07;;;;;;;;;;4924063;29;20047;-92
2024/02/22 11:29:34;;;;;;;13.70;10.02;;;;;;;;;;4922018;29;20162;-93
2024/02/22 11:32:01;;;;;;;21.63;12.43;;;;;;;;;;4921327;29;20115;-92
2024/02/22 11:34:27;;;;;;;14.30;9.88;;;;;;;;;;4918400;29;20042;-92
2024/02/22 11:36:57;;;;;;;14.60;10.63;;;;;;;;;;4906646;29;20142;-92
2024/02/22 11:39:24;;;;;;;13.68;9.07;;;;;;;;;;4939859;29;20039;-92
2024/02/22 11:41:50;;;;;;;16.42;9.77;;;;;;;;;;4942984;29;20024;-93
2024/02/22 11:44:16;;;;;;;12.80;10.07;;;;;;;;;;4942926;29;20055;-94
2024/02/22 11:46:58;;;;;;;13.20;9.65;;;;;;;;;;4944211;29;20031;-96
2024/02/22 11:49:29;;;;;;;15.63;10.25;;;;;;;;;;4955741;29;20039;-93
2024/02/22 11:51:55;;;;;;;15.15;10.15;;;;;;;;;;4937219;29;20028;-92
2024/02/22 11:54:24;;;;;;;12.80;9.93;;;;;;;;;;4923407;29;20028;-92
2024/02/22 11:57:09;;;;;;;13.30;8.65;;;;;;;;;;4921901;29;20130;-93
2024/02/22 11:59:35;;;;;;;13.57;9.25;;;;;;;;;;4923356;29;20031;-91
2024/02/22 12:02:05;;;;;;;13.30;9.18;;;;;;;;;;4924848;29;20032;-89
2024/02/22 12:04:33;;;;;;;13.75;9.00;;;;;;;;;;4923471;29;20034;-89
2024/02/22 12:07:03;;;;;;;13.63;9.55;;;;;;;;;;4922872;29;20036;-89
2024/02/22 12:09:30;;;;;;;11.50;8.00;;;;;;;;;;4922791;29;20526;-88
2024/02/22 12:11:56;;;;;;;11.45;8.88;;;;;;;;;;4938619;29;20011;-88
2024/02/22 12:14:22;;;;;;;11.70;8.68;;;;;;;;;;4949210;28;20028;-89
2024/02/22 12:16:49;;;;;;;12.15;8.52;;;;;;;;;;4924198;29;20114;-89
2024/02/22 12:19:19;;;;;;;13.70;9.73;;;;;;;;;;4912702;29;20036;-89
2024/02/22 12:21:49;;;;;;;11.95;9.18;;;;;;;;;;4905173;29;20031;-89
2024/02/22 12:27:42;;;;;;;12.10;9.10;;;;;;;;;;4862478;29;20051;-92
2024/02/22 12:30:08;;;;;;;11.10;8.43;;;;;;;;;;4846491;29;20562;-92
2024/02/22 12:32:34;;;;;;;12.40;9.75;;;;;;;;;;4892827;29;20134;-92
2024/02/22 12:35:01;;;;;;;13.02;9.07;;;;;;;;;;4927036;29;20059;-91
2024/02/22 12:37:27;;;;;;;12.70;9.18;;;;;;;;;;4931478;29;20032;-90
2024/02/22 12:39:53;;;;;;;21.73;15.35;;;;;;;;;;4921726;29;20035;-90
2024/02/22 12:42:19;;;;;;;13.05;10.60;;;;;;;;;;4922129;29;20049;-90
2024/02/22 12:44:46;;;;;;;37.00;25.88;;;;;;;;;;4905072;29;20028;-94
2024/02/22 12:47:12;;;;;;;17.40;13.30;;;;;;;;;;4903515;29;20042;-92
2024/02/22 12:49:42;;;;;;;29.42;20.73;;;;;;;;;;4903453;29;20063;-91
2024/02/22 12:52:10;;;;;;;14.93;11.32;;;;;;;;;;4906795;29;20131;-90
2024/02/22 12:54:36;;;;;;;13.85;10.90;;;;;;;;;;4903531;29;20478;-90
2024/02/22 12:57:03;;;;;;;14.25;10.98;;;;;;;;;;4910152;29;20483;-91
2024/02/22 12:59:29;;;;;;;14.05;12.55;;;;;;;;;;4921693;29;20046;-91
2024/02/22 13:01:55;;;;;;;17.35;14.52;;;;;;;;;;4921974;29;20027;-90
2024/02/22 13:04:21;;;;;;;69.57;43.85;;;;;;;;;;4921915;29;20063;-90
2024/02/22 13:06:47;;;;;;;19.60;14.85;;;;;;;;;;4938844;29;20031;-90
2024/02/22 13:09:13;;;;;;;14.82;11.05;;;;;;;;;;4929139;29;20508;-94
2024/02/22 13:11:40;;;;;;;13.00;10.90;;;;;;;;;;4921734;29;20019;-91
2024/02/22 13:14:06;;;;;;;15.82;12.63;;;;;;;;;;4922195;29;20028;-91
2024/02/22 13:16:34;;;;;;;15.52;13.68;;;;;;;;;;4928120;29;20027;-93
2024/02/22 13:19:09;;;;;;;16.70;11.32;;;;;;;;;;4940595;29;20495;-93
2024/02/22 13:21:50;;;;;;;17.13;10.90;;;;;;;;;;4934746;29;20123;-93
2024/02/22 13:24:20;;;;;;;21.13;11.98;;;;;;;;;;5112222;23;20546;-93
2024/02/22 13:26:46;;;;;;;15.93;10.88;;;;;;;;;;4918531;29;20477;-92
2024/02/22 13:29:13;;;;;;;16.15;11.30;;;;;;;;;;4918813;29;20028;-91
2024/02/22 13:31:40;;;;;;;16.75;13.13;;;;;;;;;;4918122;29;20100;-91
2024/02/22 13:34:06;;;;;;;16.38;10.75;;;;;;;;;;4917865;29;20115;-92
2024/02/22 13:36:34;;;;;;;20.10;12.95;;;;;;;;;;4928860;29;20063;-93
2024/02/22 13:39:00;;;;;;;16.45;12.43;;;;;;;;;;4930601;29;20087;-91
2024/02/22 13:41:26;;;;;;;15.95;11.52;;;;;;;;;;4918994;29;20024;-90
2024/02/22 13:43:55;;;;;;;16.88;12.38;;;;;;;;;;4932265;29;20031;-92
2024/02/22 13:46:22;;;;;;;16.70;12.18;;;;;;;;;;4948424;28;20046;-89
2024/02/22 13:48:50;;;;;;;19.92;13.40;;;;;;;;;;4918096;29;20099;-90
2024/02/22 13:51:17;;;;;;;16.95;11.90;;;;;;;;;;4919072;29;20056;-91
2024/02/22 13:53:43;;;;;;;18.23;11.65;;;;;;;;;;4918029;29;20028;-91
2024/02/22 13:56:09;;;;;;;16.88;9.52;;;;;;;;;;4924873;29;20039;-92
2024/02/22 13:58:39;;;;;;;12.18;7.80;;;;;;;;;;4934359;29;20474;-93
2024/02/22 14:01:08;;;;;;;12.55;7.78;;;;;;;;;;4902450;29;20028;-92
2024/02/22 14:03:34;;;;;;;12.02;8.05;;;;;;;;;;4917838;29;20036;-93
2024/02/22 14:06:02;;;;;;;12.10;7.70;;;;;;;;;;4902294;29;20063;-90
2024/02/22 14:08:29;;;;;;;10.63;7.40;;;;;;;;;;4918083;29;20040;-94
2024/02/22 14:10:55;;;;;;;14.30;7.95;;;;;;;;;;4904128;29;20024;-90
2024/02/22 14:13:23;;;;;;;12.65;7.53;;;;;;;;;;4937049;29;20066;-90
2024/02/22 14:15:52;;;;;;;10.45;7.82;;;;;;;;;;4921393;29;20031;-92
2024/02/22 14:18:19;;;;;;;10.63;7.55;;;;;;;;;;4936970;29;20059;-92
2024/02/22 14:21:03;;;;;;;11.15;7.10;;;;;;;;;;5093656;27;20395;-90
2024/02/22 14:23:29;;;;;;;12.52;8.68;;;;;;;;;;5108938;28;20032;-93
2024/02/22 14:25:56;;;;;;;13.38;8.73;;;;;;;;;;5108375;28;20031;-91
2024/02/22 14:28:22;;;;;;;13.35;8.50;;;;;;;;;;5108359;28;20078;-91
2024/02/22 14:30:58;;;;;;;11.75;8.15;;;;;;;;;;5110093;28;20027;-88
2024/02/22 14:33:24;;;;;;;14.10;8.98;;;;;;;;;;5111805;28;20021;-90
2024/02/22 14:35:50;;;;;;;11.77;8.45;;;;;;;;;;5108135;28;20024;-92
2024/02/22 14:38:18;;;;;;;12.50;8.48;;;;;;;;;;5107404;28;20028;-92
2024/02/22 14:40:44;;;;;;;13.88;9.40;;;;;;;;;;5107377;28;20067;-88
2024/02/22 14:43:10;;;;;;;18.10;11.00;;;;;;;;;;5091838;28;20032;-90
2024/02/22 14:45:37;;;;;;;15.23;9.60;;;;;;;;;;5090529;28;20028;-91
2024/02/22 14:48:13;;;;;;;14.65;8.55;;;;;;;;;;5107394;28;20020;-95
2024/02/22 14:50:39;;;;;;;14.60;9.27;;;;;;;;;;5107636;28;20021;-93
2024/02/22 14:53:07;;;;;;;12.82;8.73;;;;;;;;;;5108813;28;20028;-90
2024/02/22 14:55:33;;;;;;;12.63;8.55;;;;;;;;;;5109320;28;20024;-93
2024/02/22 14:57:59;;;;;;;12.32;7.97;;;;;;;;;;5107361;28;20020;-93
2024/02/22 15:00:25;;;;;;;12.60;8.50;;;;;;;;;;5090118;28;20541;-90
2024/02/22 15:02:58;;;;;;;12.90;8.10;;;;;;;;;;5089986;28;20028;-92
2024/02/22 15:05:24;;;;;;;13.70;8.73;;;;;;;;;;5089785;28;20472;-91
2024/02/22 15:07:50;;;;;;;12.35;7.72;;;;;;;;;;5090029;28;20028;-93
2024/02/22 15:10:16;;;;;;;11.52;7.80;;;;;;;;;;5089716;28;20059;-95
2024/02/22 15:12:46;;;;;;;9.38;7.25;;;;;;;;;;5089633;28;20025;-92
2024/02/22 15:15:15;;;;;;;8.95;6.57;;;;;;;;;;5090347;28;20464;-92
2024/02/22 15:20:31;;;;;;;12.93;9.00;;;;;;;;;;5217770;23;20058;-94
2024/02/22 15:22:57;;;;;;;10.15;6.05;;;;;;;;;;4995933;28;20455;-92
2024/02/22 15:25:54;;;;;;;21.77;16.70;;;;;;;;;;4992982;28;20030;-93
2024/02/22 15:28:38;;;;;;;7.57;6.10;;;;;;;;;;4993088;28;20034;-92
2024/02/22 15:31:16;;;;;;;8.85;4.75;;;;;;;;;;4988363;28;20045;-91
2024/02/22 15:33:58;;;;;;;8.73;5.43;;;;;;;;;;5038361;23;20584;-93
2024/02/22 15:36:27;;;;;;;6.82;4.50;;;;;;;;;;4920282;29;20540;-91
2024/02/22 15:38:54;;;;;;;6.78;4.68;;;;;;;;;;4920243;29;20040;-92
2024/02/22 15:41:28;;;;;;;5.97;3.97;;;;;;;;;;4919778;29;20037;-92
2024/02/22 15:43:55;;;;;;;5.50;3.90;;;;;;;;;;4920064;29;20028;-91
2024/02/22 15:46:24;;;;;;;6.45;3.72;;;;;;;;;;4935065;29;20034;-94
2024/02/22 15:51:57;;;;;;;7.53;3.80;;;;;;;;;;4926467;29;20051;-92
2024/02/22 15:54:23;;;;;;;7.00;4.15;;;;;;;;;;4922674;29;20039;-91
2024/02/22 15:56:52;;;;;;;6.85;4.35;;;;;;;;;;4931646;29;20035;-93
2024/02/22 15:59:18;;;;;;;8.82;4.72;;;;;;;;;;4938789;29;20043;-90
2024/02/22 16:01:56;;;;;;;5.90;4.30;;;;;;;;;;4931822;29;20039;-90
2024/02/22 16:04:22;;;;;;;9.68;5.13;;;;;;;;;;4919787;29;20042;-90
2024/02/22 16:06:50;;;;;;;11.25;7.03;;;;;;;;;;4919650;29;20354;-90
2024/02/22 16:09:26;;;;;;;8.30;5.63;;;;;;;;;;4907095;29;20123;-89
2024/02/22 16:11:52;;;;;;;8.07;5.57;;;;;;;;;;4900946;29;20038;-92
2024/02/22 16:14:18;;;;;;;10.23;7.20;;;;;;;;;;4900831;29;20033;-88
2024/02/22 16:16:48;;;;;;;7.85;5.30;;;;;;;;;;4900779;29;20036;-91
2024/02/22 16:19:17;;;;;;;7.90;5.47;;;;;;;;;;4900353;29;20029;-92
2024/02/22 16:21:43;;;;;;;6.72;5.30;;;;;;;;;;4900371;29;20127;-90
2024/02/22 16:24:10;;;;;;;9.60;5.50;;;;;;;;;;4900405;29;20462;-89
2024/02/22 16:26:38;;;;;;;8.25;5.65;;;;;;;;;;4901609;29;20149;-90
2024/02/22 16:29:09;;;;;;;7.97;5.65;;;;;;;;;;4921463;29;20024;-90
2024/02/22 16:31:38;;;;;;;9.05;5.68;;;;;;;;;;4906094;29;20042;-88
2024/02/22 16:34:05;;;;;;;9.85;5.47;;;;;;;;;;4919318;29;20460;-90
2024/02/22 16:36:37;;;;;;;7.10;4.90;;;;;;;;;;4922472;29;20035;-90
2024/02/22 16:42:25;;;;;;;7.07;4.47;;;;;;;;;;4921721;29;20532;-90
2024/02/22 16:45:03;;;;;;;8.00;5.30;;;;;;;;;;4902868;29;20175;-90
2024/02/22 16:47:44;;;;;;;9.65;5.55;;;;;;;;;;4887311;29;20032;-89
2024/02/22 16:50:10;;;;;;;9.80;6.38;;;;;;;;;;4903291;29;20024;-91
2024/02/22 16:52:37;;;;;;;8.35;5.63;;;;;;;;;;4905789;29;20069;-90
2024/02/22 16:55:03;;;;;;;8.52;5.35;;;;;;;;;;4902795;29;20069;-91
2024/02/22 16:57:30;;;;;;;6.95;4.65;;;;;;;;;;4903032;29;20031;-90
2024/02/22 16:59:56;;;;;;;8.52;5.45;;;;;;;;;;4903611;29;20067;-91
2024/02/22 17:02:26;;;;;;;11.45;5.45;;;;;;;;;;4902708;29;20084;-90
2024/02/22 17:04:53;;;;;;;8.48;5.40;;;;;;;;;;4908050;29;20036;-90
2024/02/22 17:07:19;;;;;;;9.20;5.05;;;;;;;;;;4915122;29;20068;-90
2024/02/22 17:09:54;;;;;;;10.15;5.88;;;;;;;;;;4918731;29;20059;-92
2024/02/22 17:15:23;;;;;;;9.23;6.15;;;;;;;;;;4978535;23;20141;-90
2024/02/22 17:17:53;;;;;;;9.52;5.63;;;;;;;;;;4995395;28;20030;-91
2024/02/22 17:20:19;;;;;;;8.57;5.88;;;;;;;;;;4995107;28;20118;-90
2024/02/22 17:22:47;;;;;;;8.77;6.00;;;;;;;;;;4994558;28;20031;-89
2024/02/22 17:25:19;;;;;;;8.93;6.03;;;;;;;;;;4994586;28;20031;-89
2024/02/22 17:31:15;;;;;;;10.93;6.70;;;;;;;;;;5217686;23;20143;-91
2024/02/22 17:33:41;;;;;;;8.93;6.45;;;;;;;;;;4998110;28;20029;-95
2024/02/22 17:36:07;;;;;;;10.30;6.72;;;;;;;;;;4998759;28;20125;-91
2024/02/22 17:38:36;;;;;;;31.58;15.63;;;;;;;;;;4992714;28;20042;-88
2024/02/22 17:41:03;;;;;;;18.05;11.10;;;;;;;;;;4994458;28;20031;-87
2024/02/22 17:43:31;;;;;;;10.35;6.72;;;;;;;;;;4978439;28;20022;-89
2024/02/22 17:45:57;;;;;;;10.95;7.25;;;;;;;;;;5005816;28;20041;-89
2024/02/22 17:48:24;;;;;;;10.63;6.80;;;;;;;;;;5000841;28;20053;-88
2024/02/22 17:50:50;;;;;;;10.73;6.53;;;;;;;;;;4998993;28;20030;-90
2024/02/22 17:53:21;;;;;;;9.82;6.78;;;;;;;;;;4997576;28;20050;-87
2024/02/22 17:55:47;;;;;;;11.13;6.45;;;;;;;;;;4997508;28;20084;-88
2024/02/22 17:58:13;;;;;;;10.18;6.47;;;;;;;;;;4992110;28;20036;-89
2024/02/22 18:00:40;;;;;;;10.77;7.35;;;;;;;;;;4978238;28;20046;-90
2024/02/22 18:05:54;;;;;;;12.57;6.35;;;;;;;;;;4992718;28;20051;-90
2024/02/22 18:08:20;;;;;;;12.73;6.80;;;;;;;;;;4978593;28;20101;-90
2024/02/22 18:10:52;;;;;;;9.98;6.35;;;;;;;;;;4978343;28;20042;-90
2024/02/22 18:13:27;;;;;;;10.48;7.03;;;;;;;;;;4978873;28;20031;-91
2024/02/22 18:16:06;;;;;;;10.90;6.88;;;;;;;;;;4978508;28;20034;-90
2024/02/22 18:18:46;;;;;;;10.43;7.43;;;;;;;;;;4977986;28;20045;-91
2024/02/22 18:21:13;;;;;;;9.73;6.28;;;;;;;;;;4978880;28;20046;-89
2024/02/22 18:23:57;;;;;;;9.90;6.40;;;;;;;;;;4997844;28;20030;-91
2024/02/22 18:26:23;;;;;;;9.95;5.88;;;;;;;;;;4978386;28;20030;-89
2024/02/22 18:29:11;;;;;;;10.07;6.28;;;;;;;;;;4977462;28;20030;-92
2024/02/22 18:31:37;;;;;;;8.70;6.05;;;;;;;;;;4977979;28;20030;-91
2024/02/22 18:34:09;;;;;;;9.27;5.88;;;;;;;;;;4978041;28;20093;-90
2024/02/22 18:36:35;;;;;;;9.95;6.47;;;;;;;;;;4978096;28;20026;-94
2024/02/22 18:39:07;;;;;;;8.98;6.28;;;;;;;;;;4978216;28;20037;-91
2024/02/22 18:41:43;;;;;;;10.07;5.93;;;;;;;;;;4977944;28;20030;-90
2024/02/22 18:46:45;;;;;;;9.27;6.10;;;;;;;;;;5074374;23;20087;-90
2024/02/22 18:49:12;;;;;;;9.93;5.70;;;;;;;;;;5013249;28;20474;-89
2024/02/22 18:51:38;;;;;;;10.15;6.10;;;;;;;;;;5014040;28;20030;-91
2024/02/22 18:54:05;;;;;;;8.18;5.80;;;;;;;;;;5014461;28;20037;-91
2024/02/22 18:56:32;;;;;;;7.53;5.38;;;;;;;;;;5013938;28;20034;-89
2024/02/22 18:59:05;;;;;;;8.52;5.53;;;;;;;;;;5013750;28;20030;-89
2024/02/22 19:01:34;;;;;;;11.83;5.53;;;;;;;;;;5014427;28;20040;-90
2024/02/22 19:04:04;;;;;;;8.43;5.88;;;;;;;;;;5014240;28;20092;-88
2024/02/22 19:06:30;;;;;;;10.18;6.70;;;;;;;;;;5014868;28;20022;-90
2024/02/22 19:08:56;;;;;;;22.70;17.58;;;;;;;;;;5017560;28;20022;-90
2024/02/22 19:11:26;;;;;;;10.32;6.60;;;;;;;;;;5018889;28;20076;-91
2024/02/22 19:13:52;;;;;;;8.38;5.40;;;;;;;;;;5026530;28;20025;-89
2024/02/22 19:16:24;;;;;;;8.50;6.05;;;;;;;;;;5019366;28;20034;-90
2024/02/22 19:19:02;;;;;;;8.23;5.53;;;;;;;;;;5016939;28;20112;-89
2024/02/22 19:21:33;;;;;;;8.07;5.90;;;;;;;;;;5016445;28;20030;-89
2024/02/22 19:23:59;;;;;;;7.75;5.53;;;;;;;;;;5017067;28;20025;-91
2024/02/22 19:29:50;;;;;;;9.73;5.63;;;;;;;;;;5018039;28;20028;-90
2024/02/22 19:32:16;;;;;;;7.53;5.32;;;;;;;;;;5035192;28;20268;-90
2024/02/22 19:34:45;;;;;;;9.57;5.20;;;;;;;;;;5035741;28;20549;-91
2024/02/22 19:37:17;;;;;;;8.10;5.38;;;;;;;;;;5035221;28;20025;-90
2024/02/22 19:39:44;;;;;;;8.02;4.95;;;;;;;;;;5036209;28;20473;-91
2024/02/22 19:45:15;;;;;;;10.10;6.63;;;;;;;;;;5025425;28;20393;-91
2024/02/22 19:53:41;;;;;;;10.67;7.27;;;;;;;;;;5001156;28;20032;-90
2024/02/22 19:56:07;;;;;;;7.07;5.28;;;;;;;;;;5000716;28;20023;-91
2024/02/22 19:58:33;;;;;;;8.23;4.90;;;;;;;;;;4997424;28;20566;-92
2024/02/22 20:01:16;;;;;;;7.40;4.75;;;;;;;;;;4998120;28;20125;-92
2024/02/22 20:03:44;;;;;;;;;;;;;;;;;;4999500;28;20022;-94
2024/02/22 20:06:10;;;;;;;9.60;5.10;;;;;;;;;;5037111;28;19906;-91
2024/02/22 20:08:36;;;;;;;8.52;5.05;;;;;;;;;;5015682;28;20741;-89
2024/02/22 20:11:05;;;;;;;10.38;6.72;;;;;;;;;;4998915;28;20041;-92
2024/02/22 20:13:34;;;;;;;10.02;6.03;;;;;;;;;;4997182;28;20081;-91
2024/02/22 20:16:00;;;;;;;9.77;6.03;;;;;;;;;;4997212;28;20041;-91
2024/02/22 20:18:27;;;;;;;9.68;6.05;;;;;;;;;;4995853;28;20040;-91
2024/02/22 20:21:00;;;;;;;9.35;6.72;;;;;;;;;;4996010;28;20038;-91
2024/02/22 20:23:26;;;;;;;11.55;7.75;;;;;;;;;;4998849;28;20036;-92
2024/02/22 20:25:59;;;;;;;11.70;8.25;;;;;;;;;;5014191;28;20057;-92
2024/02/22 20:28:26;;;;;;;11.88;7.95;;;;;;;;;;5020157;28;20081;-92
2024/02/22 20:36:58;;;;;;;11.43;7.95;;;;;;;;;;5020602;28;20052;-93
2024/02/22 20:39:27;;;;;;;14.10;8.18;;;;;;;;;;5025796;23;20876;-91
2024/02/22 20:41:57;;;;;;;12.35;8.40;;;;;;;;;;4976603;28;20078;-91
2024/02/22 20:48:01;;;;;;;15.50;8.70;;;;;;;;;;4992188;28;20165;-89
2024/02/22 20:50:55;;;;;;;19.65;10.35;;;;;;;;;;4998609;28;20030;-91
2024/02/22 20:56:09;;;;;;;16.23;10.40;;;;;;;;;;5205512;23;20058;-92
2024/02/22 20:58:35;;;;;;;19.17;10.98;;;;;;;;;;4995909;28;20031;-91
2024/02/22 21:01:09;;;;;;;18.52;10.77;;;;;;;;;;4995978;28;20084;-91
2024/02/22 21:03:35;;;;;;;17.58;9.93;;;;;;;;;;4995226;28;20125;-91
2024/02/22 21:06:04;;;;;;;18.92;10.13;;;;;;;;;;4995268;28;20399;-91
2024/02/22 21:08:40;;;;;;;17.35;10.43;;;;;;;;;;4996884;28;20053;-90
2024/02/22 21:14:12;;;;;;;17.50;8.32;;;;;;;;;;5000107;28;20089;-90
2024/02/22 21:16:42;;;;;;;19.38;10.57;;;;;;;;;;4997391;28;20026;-90
2024/02/22 21:19:08;;;;;;;21.02;12.35;;;;;;;;;;4994796;28;20121;-91
2024/02/22 21:21:35;;;;;;;18.42;12.23;;;;;;;;;;4994972;28;20053;-92